createdAt,value
2022-10-21T00:03:33.099Z,13.02
2022-10-21T00:08:35.849Z,12.25
2022-10-21T00:13:39.630Z,13.65
2022-10-21T00:18:43.328Z,13.07
2022-10-21T00:23:46.094Z,12.65
2022-10-21T00:28:48.455Z,14.13
2022-10-21T00:33:50.804Z,14.50
2022-10-21T00:38:53.082Z,12.80
2022-10-21T00:43:57.456Z,15.20
2022-10-21T00:49:00.595Z,17.13
2022-10-21T00:54:03.427Z,16.10
2022-10-21T00:59:06.037Z,19.77
2022-10-21T01:04:08.385Z,14.07
2022-10-21T01:09:11.055Z,15.32
2022-10-21T01:14:13.475Z,13.40
2022-10-21T01:19:40.486Z,13.65
2022-10-21T01:24:42.759Z,15.13
2022-10-21T01:30:07.130Z,15.10
2022-10-21T01:35:45.923Z,13.80
2022-10-21T01:40:57.480Z,14.15
2022-10-21T01:46:15.911Z,14.50
2022-10-21T01:51:18.887Z,15.60
2022-10-21T01:56:21.793Z,15.40
2022-10-21T02:01:25.003Z,15.63
2022-10-21T02:06:27.933Z,13.02
2022-10-21T02:11:30.431Z,14.32
2022-10-21T02:16:37.147Z,13.80
2022-10-21T02:21:39.711Z,14.10
2022-10-21T02:26:42.069Z,16.10
2022-10-21T02:32:03.359Z,14.45
2022-10-21T02:37:27.001Z,15.63
2022-10-21T02:42:33.097Z,14.95
2022-10-21T02:47:38.263Z,16.63
2022-10-21T02:52:40.818Z,17.08
2022-10-21T02:57:43.142Z,17.17
2022-10-21T03:02:45.438Z,17.52
2022-10-21T03:07:47.850Z,20.02
2022-10-21T03:12:50.917Z,19.75
2022-10-21T03:17:53.256Z,19.13
2022-10-21T03:22:55.547Z,17.60
2022-10-21T03:27:57.916Z,22.30
2022-10-21T03:33:00.283Z,17.88
2022-10-21T03:38:02.677Z,17.60
2022-10-21T03:43:04.984Z,18.10
2022-10-21T03:48:07.385Z,18.02
2022-10-21T03:53:18.559Z,18.02
2022-10-21T04:03:30.742Z,16.70
2022-10-21T04:08:33.075Z,17.02
2022-10-21T04:13:35.920Z,20.88
2022-10-21T04:18:38.196Z,17.60
2022-10-21T04:23:40.527Z,19.10
2022-10-21T04:28:42.772Z,23.50
2022-10-21T04:33:45.237Z,22.42
2022-10-21T04:38:48.106Z,21.88
2022-10-21T04:43:50.486Z,24.13
2022-10-21T04:48:52.803Z,27.02
2022-10-21T04:53:55.068Z,28.90
2022-10-21T04:58:57.361Z,22.95
2022-10-21T05:03:59.711Z,46.67
2022-10-21T05:09:02.642Z,33.10
2022-10-21T05:14:05.052Z,23.17
2022-10-21T05:19:07.357Z,27.88
2022-10-21T05:24:10.001Z,23.33
2022-10-21T05:29:12.472Z,21.10
2022-10-21T05:34:14.856Z,21.92
2022-10-21T05:39:17.185Z,21.05
2022-10-21T05:44:19.506Z,23.33
2022-10-21T05:49:21.810Z,18.30
2022-10-21T05:54:24.066Z,19.77
2022-10-21T05:59:27.036Z,18.13
2022-10-21T06:04:29.305Z,16.70
2022-10-21T06:09:31.643Z,17.83
2022-10-21T06:14:36.348Z,16.80
2022-10-21T06:19:38.727Z,14.80
2022-10-21T06:24:41.068Z,19.48
2022-10-21T06:29:43.323Z,17.77
2022-10-21T06:34:45.640Z,18.15
2022-10-21T06:39:47.981Z,17.08
2022-10-21T06:44:50.200Z,17.65
2022-10-21T06:49:52.425Z,17.55
2022-10-21T06:54:54.724Z,17.33
2022-10-21T06:59:57.080Z,18.27
2022-10-21T07:04:59.471Z,17.42
2022-10-21T07:10:01.799Z,17.30
2022-10-21T07:15:04.434Z,16.92
2022-10-21T07:20:07.302Z,17.38
2022-10-21T07:25:09.869Z,18.25
2022-10-21T07:30:12.366Z,16.67
2022-10-21T07:35:14.735Z,19.27
2022-10-21T07:40:17.084Z,17.58
2022-10-21T07:45:19.458Z,20.38
2022-10-21T07:50:22.000Z,23.55
2022-10-21T07:55:24.320Z,16.70
2022-10-21T08:00:26.649Z,16.50
2022-10-21T08:05:28.940Z,16.83
2022-10-21T08:10:31.219Z,16.88
2022-10-21T08:15:33.593Z,14.32
2022-10-21T08:20:43.432Z,17.88
2022-10-21T08:25:50.414Z,15.70
2022-10-21T08:30:52.947Z,15.77
2022-10-21T08:35:55.233Z,14.13
2022-10-21T08:40:57.546Z,14.55
2022-10-21T08:46:10.232Z,13.68
2022-10-21T08:51:34.276Z,16.48
2022-10-21T08:56:36.593Z,16.20
2022-10-21T09:01:44.744Z,16.05
2022-10-21T09:07:02.719Z,14.90
2022-10-21T09:12:16.841Z,14.85
2022-10-21T09:17:34.604Z,16.27
2022-10-21T09:22:58.664Z,14.50
2022-10-21T09:28:03.479Z,13.55
2022-10-21T09:33:31.824Z,13.82
2022-10-21T09:43:49.330Z,15.65
2022-10-21T09:49:23.175Z,16.85
2022-10-21T09:54:19.154Z,17.50
2022-10-21T09:59:23.508Z,18.58
2022-10-21T10:04:33.815Z,16.90
2022-10-21T10:09:39.195Z,16.90
2022-10-21T10:14:43.759Z,16.73
2022-10-21T10:20:06.169Z,17.55
2022-10-21T10:25:09.653Z,12.95
2022-10-21T10:30:14.279Z,14.18
2022-10-21T10:35:25.724Z,15.88
2022-10-21T10:40:39.667Z,15.38
2022-10-21T10:45:55.415Z,16.95
2022-10-21T10:50:58.377Z,22.15
2022-10-21T10:56:06.409Z,29.15
2022-10-21T11:01:13.851Z,27.27
2022-10-21T11:11:26.852Z,29.25
2022-10-21T11:16:57.289Z,18.83
2022-10-21T11:22:25.527Z,26.13
2022-10-21T11:27:39.790Z,17.50
2022-10-21T11:33:05.430Z,19.20
2022-10-21T11:38:45.190Z,16.55
2022-10-21T11:44:14.907Z,19.10
2022-10-21T11:49:37.299Z,13.52
2022-10-21T11:55:09.984Z,13.55
2022-10-21T12:00:21.726Z,12.60
2022-10-21T12:05:32.814Z,16.65
2022-10-21T12:10:47.831Z,13.35
2022-10-21T12:15:52.635Z,13.20
2022-10-21T12:20:55.583Z,12.45
2022-10-21T12:26:25.634Z,12.40
2022-10-21T12:31:30.645Z,13.65
2022-10-21T12:36:46.891Z,16.23
2022-10-21T12:41:49.285Z,12.88
2022-10-21T12:46:57.914Z,16.13
2022-10-21T12:52:03.051Z,17.08
2022-10-21T12:57:07.826Z,18.17
2022-10-21T13:02:18.276Z,18.55
2022-10-21T13:07:26.607Z,16.92
2022-10-21T13:12:31.744Z,29.52
2022-10-21T13:17:54.871Z,17.50
2022-10-21T13:23:29.483Z,15.70
2022-10-21T13:28:31.984Z,17.02
2022-10-21T13:33:37.530Z,17.05
2022-10-21T13:38:51.463Z,15.82
2022-10-21T13:43:55.990Z,18.70
2022-10-21T13:49:01.388Z,17.48
2022-10-21T13:54:10.973Z,17.08
2022-10-21T13:59:25.046Z,20.10
2022-10-21T14:04:34.881Z,18.48
2022-10-21T14:09:41.171Z,21.52
2022-10-21T14:14:43.566Z,21.23
2022-10-21T14:19:56.959Z,19.15
2022-10-21T14:25:02.050Z,23.15
2022-10-21T14:30:07.555Z,21.88
2022-10-21T14:35:10.316Z,22.02
2022-10-21T14:40:32.449Z,21.08
2022-10-21T14:45:37.144Z,22.10
2022-10-21T14:50:40.857Z,22.00
2022-10-21T14:55:43.627Z,20.17
2022-10-21T15:00:47.114Z,22.05
2022-10-21T15:05:49.517Z,22.88
2022-10-21T15:10:58.121Z,21.50
2022-10-21T15:16:02.715Z,28.67
2022-10-21T15:21:09.921Z,23.73
2022-10-21T15:26:24.915Z,23.73
2022-10-21T15:31:29.220Z,29.40
2022-10-21T15:36:31.527Z,25.05
2022-10-21T15:41:33.915Z,26.67
2022-10-21T15:46:46.161Z,25.85
2022-10-21T15:51:50.180Z,26.52
2022-10-21T15:56:54.622Z,25.63
2022-10-21T16:01:58.136Z,23.60
2022-10-21T16:07:00.563Z,26.80
2022-10-21T16:12:02.927Z,27.73
2022-10-21T16:17:05.342Z,31.33
2022-10-21T16:22:19.490Z,29.58
2022-10-21T16:27:31.355Z,31.33
2022-10-21T16:32:44.133Z,30.85
2022-10-21T16:37:48.057Z,31.08
2022-10-21T16:42:51.350Z,28.15
2022-10-21T16:47:56.794Z,29.27
2022-10-21T16:53:02.013Z,30.60
2022-10-21T16:58:04.335Z,32.10
2022-10-21T17:03:06.603Z,30.92
2022-10-21T17:08:08.885Z,26.27
2022-10-21T17:13:12.462Z,28.80
2022-10-21T17:18:15.800Z,25.77
2022-10-21T17:23:18.359Z,28.75
2022-10-21T17:28:20.737Z,26.55
2022-10-21T17:33:23.619Z,26.80
2022-10-21T17:38:25.954Z,26.83
2022-10-21T17:43:28.587Z,26.05
2022-10-21T17:48:31.016Z,26.42
2022-10-21T17:53:33.315Z,24.70
2022-10-21T17:58:35.872Z,25.25
2022-10-21T18:03:38.899Z,23.48
2022-10-21T18:08:41.466Z,25.58
2022-10-21T18:13:44.236Z,29.55
2022-10-21T18:18:47.003Z,23.02
2022-10-21T18:23:53.548Z,23.90
2022-10-21T18:28:58.013Z,19.47
2022-10-21T18:34:02.302Z,26.20
2022-10-21T18:39:05.674Z,27.23
2022-10-21T18:44:09.335Z,25.73
2022-10-21T18:49:14.020Z,25.77
2022-10-21T18:54:16.510Z,26.23
2022-10-21T18:59:18.883Z,27.38
2022-10-21T19:04:21.171Z,26.70
2022-10-21T19:09:28.954Z,25.65
2022-10-21T19:14:33.865Z,26.05
2022-10-21T19:19:39.317Z,25.20
2022-10-21T19:24:42.147Z,25.30
2022-10-21T19:29:44.717Z,25.70
2022-10-21T19:34:46.970Z,27.85
2022-10-21T19:39:49.651Z,25.02
2022-10-21T19:44:52.094Z,25.58
2022-10-21T19:49:54.523Z,26.83
2022-10-21T19:54:56.823Z,26.92
2022-10-21T19:59:59.073Z,25.30
2022-10-21T20:05:01.485Z,25.23
2022-10-21T20:10:05.027Z,25.67
2022-10-21T20:15:07.740Z,26.85
2022-10-21T20:20:10.194Z,27.08
2022-10-21T20:25:12.591Z,26.10
2022-10-21T20:30:14.907Z,28.15
2022-10-21T20:35:17.191Z,26.35
2022-10-21T20:40:20.726Z,27.30
2022-10-21T20:45:23.075Z,27.77
2022-10-21T20:50:25.674Z,29.05
2022-10-21T20:55:28.087Z,24.00
2022-10-21T21:00:30.471Z,29.77
2022-10-21T21:05:38.123Z,26.75
2022-10-21T21:10:41.563Z,29.25
2022-10-21T21:15:43.953Z,30.77
2022-10-21T21:20:46.196Z,28.40
2022-10-21T21:25:48.608Z,27.88
2022-10-21T21:30:53.822Z,27.50
2022-10-21T21:35:59.423Z,26.08
2022-10-21T21:41:04.478Z,29.25
2022-10-21T21:51:11.141Z,29.30
2022-10-21T21:56:13.447Z,26.00
2022-10-21T22:01:20.306Z,29.52
2022-10-21T22:11:31.052Z,30.67
2022-10-21T22:16:33.393Z,29.17
2022-10-21T22:21:35.779Z,28.08
2022-10-21T22:26:38.056Z,28.65
2022-10-21T22:31:40.303Z,25.63
2022-10-21T22:36:42.615Z,26.17
2022-10-21T22:41:44.938Z,30.38
2022-10-21T22:46:47.175Z,26.67
2022-10-21T22:56:56.627Z,28.50
2022-10-21T23:01:58.862Z,27.70
2022-10-21T23:07:01.143Z,30.27
2022-10-21T23:12:03.478Z,27.38
2022-10-21T23:17:05.776Z,28.05
2022-10-21T23:22:08.070Z,28.25
2022-10-21T23:27:11.017Z,31.05
2022-10-21T23:32:13.335Z,29.20
2022-10-21T23:37:15.785Z,28.70
2022-10-21T23:42:18.180Z,27.67
2022-10-21T23:47:20.488Z,30.02
2022-10-21T23:52:22.807Z,31.40
2022-10-21T23:57:26.186Z,28.20
